Easton, MO (64443)

12:58 PM CDT on August 04, 2015 (GMT -0500)
East Saint Joseph | | Change Station
CLOSE
Current Station
Personal Weather Station
Location: St. Joseph, MO
Elevation: 850 ft
Nearby Weather Stations
Active Advisory: Flood Warning

Elev 850 ft 39.75 °N, 94.75 °W | Updated 13 seconds ago

Partly Cloudy
Partly Cloudy
82.6 °F
Feels Like 89 °F
N
2.0
Wind Variable Wind from East
Gusts 7.0 mph

Today
High -- | Low -- °F
--% Chance of Precip.
Yesterday
High -- | Low -- °F
Precip. -- in
6:20 AM 8:28 PM
Waning Gibbous, 76% visible
Pressure 29.97 in
Visibility 10.0 miles
Clouds Clear
Heat Index 89 °F
Dew Point 74 °F
Humidity 75%
Rainfall 0.00 in
Snow Depth Not available.
UV 0.0 out of 12
Pollen 6.50 out of 12
Air Quality Not available.
Flu Activity Not available.
METAR KSTJ 041753Z 11008KT 10SM CLR 27/21 A3000 RMK AO2 SLP149 T02670206 10267 20211 58008

More Conditions Fewer Conditions

Pressure 29.97 in
Visibility 10.0 miles
Clouds Clear
Heat Index 89 °F
Dew Point 74 °F
Humidity 75%
Rainfall 0.00 in
Snow Depth Not available.
UV 0.0 out of 12
Pollen 6.50 out of 12
Air Quality Not available.
Flu Activity Not available.
METAR KSTJ 041753Z 11008KT 10SM CLR 27/21 A3000 RMK AO2 SLP149 T02670206 10267 20211 58008

More Conditions Fewer Conditions

10-Day Weather Forecast

×

Almanac

Astronomy

Aug. 04, 2015 Rise Set
Actual Time
Civil Twilight
Nautical Twilight
Astronomical Twilight
Moon
Length of Visible Light
Length of Day
Tomorrow will be .
, % of the Moon is Illuminated

Today's Extremes

State Highs State Lows

Community

WunderPhotos

Upload Photos

1,843,927 photos uploaded!

WunderBlogs® & News

Nearby

Air Quality

  Air Quality AQ Index Pollutant
Not available.

Snow Depth

Station Depth Elevation

Earthquake Activity

City Distance Mag. Time & Date
Minimum magnitude displayed is 2.5.

Coastal Water Temperatures

Place Temperature

Stations

Nearby Weather Stations

Station Location Temp. Windchill Dew Point Humidity Wind Precip. Elev Updated Type
                   
Flood Warning
Statement as of 9:54 AM CDT on August 04, 2015

The Flood Warning continues for
the Platte River near agency.
* Until Thursday morning.
* At 9:30 am Tuesday the stage was 22.8 feet.
* Flood stage is 20.0 feet.
* Minor flooding is occurring and minor flooding is forecast.
* Forecast... the river will continue to fall to below flood stage by
late Wednesday morning.
* At 20.0 feet... low-lying areas east of agency begin to flood.

                       Latest
location fs stage day/time forecast

Platte River
agency 20 22.8 Tue 09 am 22.4 this afternoon


lat... Lon 3977 9480 3977 9471 3951 9464 3941 9464 3941 9472